sensor_id;sensor_type;location;lat;lon;timestamp;temperature;humidity
6377;DHT22;3221;48.858;10.128;2023-02-01T00:01:10;1.20;99.90
6377;DHT22;3221;48.858;10.128;2023-02-01T00:03:37;1.10;99.90
6377;DHT22;3221;48.858;10.128;2023-02-01T00:06:04;1.10;99.90
6377;DHT22;3221;48.858;10.128;2023-02-01T00:08:31;1.20;99.90
6377;DHT22;3221;48.858;10.128;2023-02-01T00:11:09;1.10;99.90
6377;DHT22;3221;48.858;10.128;2023-02-01T00:13:38;1.10;99.90
6377;DHT22;3221;48.858;10.128;2023-02-01T00:16:09;1.20;99.90
6377;DHT22;3221;48.858;10.128;2023-02-01T00:18:36;1.20;99.90
6377;DHT22;3221;48.858;10.128;2023-02-01T00:21:03;1.20;99.90
6377;DHT22;3221;48.858;10.128;2023-02-01T00:23:34;1.20;99.90
6377;DHT22;3221;48.858;10.128;2023-02-01T00:26:03;1.30;99.90
6377;DHT22;3221;48.858;10.128;2023-02-01T00:28:30;1.30;99.90
6377;DHT22;3221;48.858;10.128;2023-02-01T00:31:02;1.20;99.90
6377;DHT22;3221;48.858;10.128;2023-02-01T00:33:30;1.20;99.90
6377;DHT22;3221;48.858;10.128;2023-02-01T00:35:58;1.20;99.90
6377;DHT22;3221;48.858;10.128;2023-02-01T00:38:26;1.20;99.90
6377;DHT22;3221;48.858;10.128;2023-02-01T00:40:54;1.20;99.90
6377;DHT22;3221;48.858;10.128;2023-02-01T00:43:20;1.20;99.90
6377;DHT22;3221;48.858;10.128;2023-02-01T00:45:47;1.20;99.90
6377;DHT22;3221;48.858;10.128;2023-02-01T00:48:14;1.20;99.90
6377;DHT22;3221;48.858;10.128;2023-02-01T00:50:42;1.30;99.90
6377;DHT22;3221;48.858;10.128;2023-02-01T00:53:10;1.30;99.90
6377;DHT22;3221;48.858;10.128;2023-02-01T00:55:37;1.30;99.90
6377;DHT22;3221;48.858;10.128;2023-02-01T00:58:05;1.10;99.90
6377;DHT22;3221;48.858;10.128;2023-02-01T01:00:33;1.20;99.90
6377;DHT22;3221;48.858;10.128;2023-02-01T01:02:59;1.20;99.90
6377;DHT22;3221;48.858;10.128;2023-02-01T01:05:26;1.20;99.90
6377;DHT22;3221;48.858;10.128;2023-02-01T01:07:54;1.20;99.90
6377;DHT22;3221;48.858;10.128;2023-02-01T01:10:21;1.40;99.90
6377;DHT22;3221;48.858;10.128;2023-02-01T01:12:48;1.30;99.90
6377;DHT22;3221;48.858;10.128;2023-02-01T01:15:15;1.30;99.90
6377;DHT22;3221;48.858;10.128;2023-02-01T01:17:42;1.20;99.90
6377;DHT22;3221;48.858;10.128;2023-02-01T01:20:09;1.30;99.90
6377;DHT22;3221;48.858;10.128;2023-02-01T01:22:37;1.30;99.90
6377;DHT22;3221;48.858;10.128;2023-02-01T01:25:04;1.30;99.90
6377;DHT22;3221;48.858;10.128;2023-02-01T01:27:31;1.30;99.90
6377;DHT22;3221;48.858;10.128;2023-02-01T01:29:58;1.30;99.90
6377;DHT22;3221;48.858;10.128;2023-02-01T01:32:25;1.20;99.90
6377;DHT22;3221;48.858;10.128;2023-02-01T01:34:51;1.20;99.90
6377;DHT22;3221;48.858;10.128;2023-02-01T01:37:18;1.20;99.90
6377;DHT22;3221;48.858;10.128;2023-02-01T01:39:45;1.20;99.90
6377;DHT22;3221;48.858;10.128;2023-02-01T01:42:12;1.20;99.90
6377;DHT22;3221;48.858;10.128;2023-02-01T01:45:02;1.20;99.90
6377;DHT22;3221;48.858;10.128;2023-02-01T01:47:41;1.20;99.90
6377;DHT22;3221;48.858;10.128;2023-02-01T01:50:12;1.30;99.90
6377;DHT22;3221;48.858;10.128;2023-02-01T01:52:41;1.30;99.90
6377;DHT22;3221;48.858;10.128;2023-02-01T01:55:08;1.30;99.90
6377;DHT22;3221;48.858;10.128;2023-02-01T01:57:39;1.30;99.90
6377;DHT22;3221;48.858;10.128;2023-02-01T02:00:09;1.30;99.90
6377;DHT22;3221;48.858;10.128;2023-02-01T02:02:45;1.20;99.90
6377;DHT22;3221;48.858;10.128;2023-02-01T02:07:58;1.20;99.90
6377;DHT22;3221;48.858;10.128;2023-02-01T02:10:25;1.20;99.90
6377;DHT22;3221;48.858;10.128;2023-02-01T02:13:14;1.30;99.90
6377;DHT22;3221;48.858;10.128;2023-02-01T02:15:47;1.30;99.90
6377;DHT22;3221;48.858;10.128;2023-02-01T02:18:21;1.30;99.90
6377;DHT22;3221;48.858;10.128;2023-02-01T02:21:12;1.30;99.90
6377;DHT22;3221;48.858;10.128;2023-02-01T02:26:53;1.30;99.90
6377;DHT22;3221;48.858;10.128;2023-02-01T02:38:13;1.30;99.90
6377;DHT22;3221;48.858;10.128;2023-02-01T02:40:51;1.20;99.90
6377;DHT22;3221;48.858;10.128;2023-02-01T02:43:34;1.30;99.90
6377;DHT22;3221;48.858;10.128;2023-02-01T02:46:44;1.20;99.90
6377;DHT22;3221;48.858;10.128;2023-02-01T02:49:42;1.30;99.90
6377;DHT22;3221;48.858;10.128;2023-02-01T02:52:32;1.30;99.90
6377;DHT22;3221;48.858;10.128;2023-02-01T02:55:19;1.30;99.90
6377;DHT22;3221;48.858;10.128;2023-02-01T02:57:47;1.30;99.90
6377;DHT22;3221;48.858;10.128;2023-02-01T03:00:33;1.30;99.90
6377;DHT22;3221;48.858;10.128;2023-02-01T03:03:19;1.30;99.90
6377;DHT22;3221;48.858;10.128;2023-02-01T03:06:12;1.30;99.90
6377;DHT22;3221;48.858;10.128;2023-02-01T03:08:39;1.30;99.90
6377;DHT22;3221;48.858;10.128;2023-02-01T03:11:15;1.30;99.90
6377;DHT22;3221;48.858;10.128;2023-02-01T03:13:50;1.30;99.90
6377;DHT22;3221;48.858;10.128;2023-02-01T03:16:33;1.30;99.90
6377;DHT22;3221;48.858;10.128;2023-02-01T03:19:06;1.30;99.90
6377;DHT22;3221;48.858;10.128;2023-02-01T03:21:40;1.30;99.90
6377;DHT22;3221;48.858;10.128;2023-02-01T03:24:18;1.30;99.90
6377;DHT22;3221;48.858;10.128;2023-02-01T03:26:54;1.30;99.90
6377;DHT22;3221;48.858;10.128;2023-02-01T03:29:25;1.30;99.90
6377;DHT22;3221;48.858;10.128;2023-02-01T03:31:54;1.30;99.90
6377;DHT22;3221;48.858;10.128;2023-02-01T03:34:21;1.40;99.90
6377;DHT22;3221;48.858;10.128;2023-02-01T03:37:02;1.30;99.90
6377;DHT22;3221;48.858;10.128;2023-02-01T03:39:34;1.40;99.90
6377;DHT22;3221;48.858;10.128;2023-02-01T03:42:12;1.40;99.90
6377;DHT22;3221;48.858;10.128;2023-02-01T03:44:54;1.30;99.90
6377;DHT22;3221;48.858;10.128;2023-02-01T03:47:29;1.30;99.90
6377;DHT22;3221;48.858;10.128;2023-02-01T03:50:06;1.40;99.90
6377;DHT22;3221;48.858;10.128;2023-02-01T03:52:57;1.30;99.90
6377;DHT22;3221;48.858;10.128;2023-02-01T03:55:27;1.40;99.90
6377;DHT22;3221;48.858;10.128;2023-02-01T03:58:15;1.40;99.90
6377;DHT22;3221;48.858;10.128;2023-02-01T04:00:51;1.40;99.90
6377;DHT22;3221;48.858;10.128;2023-02-01T04:03:18;1.40;99.90
6377;DHT22;3221;48.858;10.128;2023-02-01T04:05:45;1.40;99.90
6377;DHT22;3221;48.858;10.128;2023-02-01T04:08:12;1.30;99.90
6377;DHT22;3221;48.858;10.128;2023-02-01T04:10:39;1.40;99.90
6377;DHT22;3221;48.858;10.128;2023-02-01T04:13:07;1.40;99.90
6377;DHT22;3221;48.858;10.128;2023-02-01T04:15:34;1.40;99.90
6377;DHT22;3221;48.858;10.128;2023-02-01T04:18:01;1.40;99.90
6377;DHT22;3221;48.858;10.128;2023-02-01T04:20:28;1.40;99.90
6377;DHT22;3221;48.858;10.128;2023-02-01T04:22:55;1.40;99.90
6377;DHT22;3221;48.858;10.128;2023-02-01T04:25:22;1.40;99.90
6377;DHT22;3221;48.858;10.128;2023-02-01T04:27:49;1.50;99.90
6377;DHT22;3221;48.858;10.128;2023-02-01T04:30:16;1.50;99.90
6377;DHT22;3221;48.858;10.128;2023-02-01T04:32:43;1.50;99.90
6377;DHT22;3221;48.858;10.128;2023-02-01T04:35:10;1.50;99.90
6377;DHT22;3221;48.858;10.128;2023-02-01T04:37:38;1.40;99.90
6377;DHT22;3221;48.858;10.128;2023-02-01T04:40:05;1.40;99.90
6377;DHT22;3221;48.858;10.128;2023-02-01T04:42:33;1.50;99.90
6377;DHT22;3221;48.858;10.128;2023-02-01T04:44:59;1.50;99.90
6377;DHT22;3221;48.858;10.128;2023-02-01T04:47:26;1.40;99.90
6377;DHT22;3221;48.858;10.128;2023-02-01T04:49:53;1.40;99.90
6377;DHT22;3221;48.858;10.128;2023-02-01T04:52:20;1.40;99.90
6377;DHT22;3221;48.858;10.128;2023-02-01T04:54:47;1.50;99.90
6377;DHT22;3221;48.858;10.128;2023-02-01T04:57:13;1.50;99.90
6377;DHT22;3221;48.858;10.128;2023-02-01T04:59:41;1.50;99.90
6377;DHT22;3221;48.858;10.128;2023-02-01T05:02:08;1.50;99.90
6377;DHT22;3221;48.858;10.128;2023-02-01T05:04:35;1.50;99.90
6377;DHT22;3221;48.858;10.128;2023-02-01T05:07:02;1.40;99.90
6377;DHT22;3221;48.858;10.128;2023-02-01T05:09:29;1.50;99.90
6377;DHT22;3221;48.858;10.128;2023-02-01T05:11:55;1.40;99.90
6377;DHT22;3221;48.858;10.128;2023-02-01T05:14:41;1.50;99.90
6377;DHT22;3221;48.858;10.128;2023-02-01T05:17:08;1.50;99.90
6377;DHT22;3221;48.858;10.128;2023-02-01T05:19:35;1.50;99.90
6377;DHT22;3221;48.858;10.128;2023-02-01T05:22:02;1.50;99.90
6377;DHT22;3221;48.858;10.128;2023-02-01T05:24:29;1.50;99.90
6377;DHT22;3221;48.858;10.128;2023-02-01T05:26:56;1.50;99.90
6377;DHT22;3221;48.858;10.128;2023-02-01T05:29:23;1.50;99.90
6377;DHT22;3221;48.858;10.128;2023-02-01T05:31:50;1.50;99.90
6377;DHT22;3221;48.858;10.128;2023-02-01T05:34:17;1.50;99.90
6377;DHT22;3221;48.858;10.128;2023-02-01T05:36:44;1.50;99.90
6377;DHT22;3221;48.858;10.128;2023-02-01T05:39:11;1.60;99.90
6377;DHT22;3221;48.858;10.128;2023-02-01T05:41:37;1.50;99.90
6377;DHT22;3221;48.858;10.128;2023-02-01T05:44:04;1.50;99.90
6377;DHT22;3221;48.858;10.128;2023-02-01T05:46:34;1.50;99.90
6377;DHT22;3221;48.858;10.128;2023-02-01T05:49:01;1.50;99.90
6377;DHT22;3221;48.858;10.128;2023-02-01T05:51:28;1.50;99.90
6377;DHT22;3221;48.858;10.128;2023-02-01T05:53:55;1.50;99.90
6377;DHT22;3221;48.858;10.128;2023-02-01T05:56:22;1.50;99.90
6377;DHT22;3221;48.858;10.128;2023-02-01T05:58:49;1.50;99.90
6377;DHT22;3221;48.858;10.128;2023-02-01T06:01:16;1.50;99.90
6377;DHT22;3221;48.858;10.128;2023-02-01T06:03:42;1.60;99.90
6377;DHT22;3221;48.858;10.128;2023-02-01T06:06:09;1.60;99.90
6377;DHT22;3221;48.858;10.128;2023-02-01T06:08:36;1.50;99.90
6377;DHT22;3221;48.858;10.128;2023-02-01T06:11:04;1.60;99.90
6377;DHT22;3221;48.858;10.128;2023-02-01T06:13:31;1.60;99.90
6377;DHT22;3221;48.858;10.128;2023-02-01T06:16:04;1.60;99.90
6377;DHT22;3221;48.858;10.128;2023-02-01T06:18:34;1.60;99.90
6377;DHT22;3221;48.858;10.128;2023-02-01T06:21:02;1.50;99.90
6377;DHT22;3221;48.858;10.128;2023-02-01T06:23:30;1.50;99.90
6377;DHT22;3221;48.858;10.128;2023-02-01T06:26:05;1.50;99.90
6377;DHT22;3221;48.858;10.128;2023-02-01T06:28:34;1.60;99.90
6377;DHT22;3221;48.858;10.128;2023-02-01T06:31:05;1.60;99.90
6377;DHT22;3221;48.858;10.128;2023-02-01T06:33:34;1.60;99.90
6377;DHT22;3221;48.858;10.128;2023-02-01T06:36:04;1.60;99.90
6377;DHT22;3221;48.858;10.128;2023-02-01T06:38:31;1.60;99.90
6377;DHT22;3221;48.858;10.128;2023-02-01T06:40:58;1.60;99.90
6377;DHT22;3221;48.858;10.128;2023-02-01T06:43:25;1.60;99.90
6377;DHT22;3221;48.858;10.128;2023-02-01T06:45:58;1.60;99.90
6377;DHT22;3221;48.858;10.128;2023-02-01T06:48:25;1.60;99.90
6377;DHT22;3221;48.858;10.128;2023-02-01T06:50:52;1.60;99.90
6377;DHT22;3221;48.858;10.128;2023-02-01T06:53:18;1.60;99.90
6377;DHT22;3221;48.858;10.128;2023-02-01T06:55:56;1.60;99.90
6377;DHT22;3221;48.858;10.128;2023-02-01T06:58:23;1.60;99.90
6377;DHT22;3221;48.858;10.128;2023-02-01T07:00:50;1.60;99.90
6377;DHT22;3221;48.858;10.128;2023-02-01T07:03:20;1.60;99.90
6377;DHT22;3221;48.858;10.128;2023-02-01T07:05:47;1.60;99.90
6377;DHT22;3221;48.858;10.128;2023-02-01T07:08:14;1.60;99.90
6377;DHT22;3221;48.858;10.128;2023-02-01T07:10:41;1.60;99.90
6377;DHT22;3221;48.858;10.128;2023-02-01T07:13:07;1.60;99.90
6377;DHT22;3221;48.858;10.128;2023-02-01T07:15:34;1.60;99.90
6377;DHT22;3221;48.858;10.128;2023-02-01T07:18:01;1.50;99.90
6377;DHT22;3221;48.858;10.128;2023-02-01T07:20:28;1.60;99.90
6377;DHT22;3221;48.858;10.128;2023-02-01T07:22:56;1.60;99.90
6377;DHT22;3221;48.858;10.128;2023-02-01T07:25:23;1.60;99.90
6377;DHT22;3221;48.858;10.128;2023-02-01T07:27:50;1.60;99.90
6377;DHT22;3221;48.858;10.128;2023-02-01T07:30:17;1.60;99.90
6377;DHT22;3221;48.858;10.128;2023-02-01T07:32:44;1.60;99.90
6377;DHT22;3221;48.858;10.128;2023-02-01T07:35:11;1.60;99.90
6377;DHT22;3221;48.858;10.128;2023-02-01T07:37:38;1.60;99.90
6377;DHT22;3221;48.858;10.128;2023-02-01T07:40:05;1.60;99.90
6377;DHT22;3221;48.858;10.128;2023-02-01T07:42:33;1.60;99.90
6377;DHT22;3221;48.858;10.128;2023-02-01T07:45:00;1.60;99.90
6377;DHT22;3221;48.858;10.128;2023-02-01T07:47:46;1.60;99.90
6377;DHT22;3221;48.858;10.128;2023-02-01T07:50:13;1.60;99.90
6377;DHT22;3221;48.858;10.128;2023-02-01T07:52:40;1.60;99.90
6377;DHT22;3221;48.858;10.128;2023-02-01T07:55:07;1.60;99.90
6377;DHT22;3221;48.858;10.128;2023-02-01T07:57:34;1.60;99.90
6377;DHT22;3221;48.858;10.128;2023-02-01T08:00:02;1.70;99.90
6377;DHT22;3221;48.858;10.128;2023-02-01T08:02:48;1.60;99.90
6377;DHT22;3221;48.858;10.128;2023-02-01T08:08:10;1.60;99.90
6377;DHT22;3221;48.858;10.128;2023-02-01T08:10:37;1.60;99.90
6377;DHT22;3221;48.858;10.128;2023-02-01T08:13:03;1.60;99.90
6377;DHT22;3221;48.858;10.128;2023-02-01T08:15:30;1.60;99.90
6377;DHT22;3221;48.858;10.128;2023-02-01T08:17:57;1.60;99.90
6377;DHT22;3221;48.858;10.128;2023-02-01T08:20:25;1.60;99.90
6377;DHT22;3221;48.858;10.128;2023-02-01T08:22:55;1.70;99.90
6377;DHT22;3221;48.858;10.128;2023-02-01T08:25:22;1.60;99.90
6377;DHT22;3221;48.858;10.128;2023-02-01T08:27:50;1.60;99.90
6377;DHT22;3221;48.858;10.128;2023-02-01T08:30:18;1.60;99.90
6377;DHT22;3221;48.858;10.128;2023-02-01T08:32:44;1.60;99.90
6377;DHT22;3221;48.858;10.128;2023-02-01T08:35:11;1.60;99.90
6377;DHT22;3221;48.858;10.128;2023-02-01T08:37:38;1.60;99.90
6377;DHT22;3221;48.858;10.128;2023-02-01T08:40:05;1.60;99.90
6377;DHT22;3221;48.858;10.128;2023-02-01T08:42:32;1.60;99.90
6377;DHT22;3221;48.858;10.128;2023-02-01T08:45:25;1.60;99.90
6377;DHT22;3221;48.858;10.128;2023-02-01T08:47:53;1.60;99.90
6377;DHT22;3221;48.858;10.128;2023-02-01T08:50:22;1.70;99.90
6377;DHT22;3221;48.858;10.128;2023-02-01T08:52:49;1.60;99.90
6377;DHT22;3221;48.858;10.128;2023-02-01T08:55:16;1.60;99.90
6377;DHT22;3221;48.858;10.128;2023-02-01T08:57:43;1.70;99.90
6377;DHT22;3221;48.858;10.128;2023-02-01T09:00:14;1.70;99.90
6377;DHT22;3221;48.858;10.128;2023-02-01T09:02:42;1.70;99.90
6377;DHT22;3221;48.858;10.128;2023-02-01T09:05:09;1.70;99.90
6377;DHT22;3221;48.858;10.128;2023-02-01T09:07:37;1.70;99.90
6377;DHT22;3221;48.858;10.128;2023-02-01T09:10:05;1.70;99.90
6377;DHT22;3221;48.858;10.128;2023-02-01T09:12:32;1.70;99.90
6377;DHT22;3221;48.858;10.128;2023-02-01T09:14:59;1.70;99.90
6377;DHT22;3221;48.858;10.128;2023-02-01T09:17:27;1.70;99.90
6377;DHT22;3221;48.858;10.128;2023-02-01T09:19:55;1.70;99.90
6377;DHT22;3221;48.858;10.128;2023-02-01T09:22:22;1.70;99.90
6377;DHT22;3221;48.858;10.128;2023-02-01T09:24:48;1.70;99.90
6377;DHT22;3221;48.858;10.128;2023-02-01T09:27:15;1.70;99.90
6377;DHT22;3221;48.858;10.128;2023-02-01T09:29:42;1.60;99.90
6377;DHT22;3221;48.858;10.128;2023-02-01T09:32:09;1.70;99.90
6377;DHT22;3221;48.858;10.128;2023-02-01T09:34:36;1.70;99.90
6377;DHT22;3221;48.858;10.128;2023-02-01T09:37:03;1.70;99.90
6377;DHT22;3221;48.858;10.128;2023-02-01T09:39:30;1.70;99.90
6377;DHT22;3221;48.858;10.128;2023-02-01T09:47:26;1.70;99.90
6377;DHT22;3221;48.858;10.128;2023-02-01T09:52:36;1.70;99.90
6377;DHT22;3221;48.858;10.128;2023-02-01T09:55:32;1.70;99.90
6377;DHT22;3221;48.858;10.128;2023-02-01T09:58:05;1.70;99.90
6377;DHT22;3221;48.858;10.128;2023-02-01T10:00:36;1.80;99.90
6377;DHT22;3221;48.858;10.128;2023-02-01T10:03:04;1.80;99.90
6377;DHT22;3221;48.858;10.128;2023-02-01T10:08:10;1.70;99.90
6377;DHT22;3221;48.858;10.128;2023-02-01T10:10:48;1.80;99.90
6377;DHT22;3221;48.858;10.128;2023-02-01T10:13:37;1.80;99.90
6377;DHT22;3221;48.858;10.128;2023-02-01T10:19:35;1.80;99.90
6377;DHT22;3221;48.858;10.128;2023-02-01T10:22:10;1.80;99.90
6377;DHT22;3221;48.858;10.128;2023-02-01T10:24:46;1.80;99.90
6377;DHT22;3221;48.858;10.128;2023-02-01T10:27:23;1.80;99.90
6377;DHT22;3221;48.858;10.128;2023-02-01T10:29:59;1.80;99.90
6377;DHT22;3221;48.858;10.128;2023-02-01T10:32:31;1.80;99.90
6377;DHT22;3221;48.858;10.128;2023-02-01T10:35:00;1.80;99.90
6377;DHT22;3221;48.858;10.128;2023-02-01T10:37:33;1.80;99.90
6377;DHT22;3221;48.858;10.128;2023-02-01T10:40:16;1.80;99.90
6377;DHT22;3221;48.858;10.128;2023-02-01T10:42:44;1.80;99.90
6377;DHT22;3221;48.858;10.128;2023-02-01T10:45:21;1.80;99.90
6377;DHT22;3221;48.858;10.128;2023-02-01T10:47:51;1.80;99.90
6377;DHT22;3221;48.858;10.128;2023-02-01T10:53:00;1.80;99.90
6377;DHT22;3221;48.858;10.128;2023-02-01T10:55:34;1.80;99.90
6377;DHT22;3221;48.858;10.128;2023-02-01T10:58:04;1.80;99.90
6377;DHT22;3221;48.858;10.128;2023-02-01T11:00:42;1.80;99.90
6377;DHT22;3221;48.858;10.128;2023-02-01T11:03:54;1.80;99.90
6377;DHT22;3221;48.858;10.128;2023-02-01T11:08:54;1.80;99.90
6377;DHT22;3221;48.858;10.128;2023-02-01T11:11:22;1.70;99.90
6377;DHT22;3221;48.858;10.128;2023-02-01T11:13:58;1.80;99.90
6377;DHT22;3221;48.858;10.128;2023-02-01T11:16:33;1.80;99.90
6377;DHT22;3221;48.858;10.128;2023-02-01T11:19:00;1.80;99.90
6377;DHT22;3221;48.858;10.128;2023-02-01T11:21:27;1.80;99.90
6377;DHT22;3221;48.858;10.128;2023-02-01T11:23:54;1.90;99.90
6377;DHT22;3221;48.858;10.128;2023-02-01T11:26:26;1.90;99.90
6377;DHT22;3221;48.858;10.128;2023-02-01T11:31:26;1.80;99.90
6377;DHT22;3221;48.858;10.128;2023-02-01T11:33:58;1.80;99.90
6377;DHT22;3221;48.858;10.128;2023-02-01T11:36:28;1.80;99.90
6377;DHT22;3221;48.858;10.128;2023-02-01T11:41:44;1.90;99.90
6377;DHT22;3221;48.858;10.128;2023-02-01T11:44:31;1.90;99.90
6377;DHT22;3221;48.858;10.128;2023-02-01T11:50:00;1.90;99.90
6377;DHT22;3221;48.858;10.128;2023-02-01T11:58:30;1.90;99.90
6377;DHT22;3221;48.858;10.128;2023-02-01T12:01:39;1.90;99.90
6377;DHT22;3221;48.858;10.128;2023-02-01T12:04:13;2.00;99.90
6377;DHT22;3221;48.858;10.128;2023-02-01T12:06:51;1.90;99.90
6377;DHT22;3221;48.858;10.128;2023-02-01T12:37:23;2.00;99.90
6377;DHT22;3221;48.858;10.128;2023-02-01T12:43:04;1.90;99.90
6377;DHT22;3221;48.858;10.128;2023-02-01T12:45:49;2.00;99.90
6377;DHT22;3221;48.858;10.128;2023-02-01T12:48:41;2.10;99.90
6377;DHT22;3221;48.858;10.128;2023-02-01T12:51:20;2.00;99.90
6377;DHT22;3221;48.858;10.128;2023-02-01T12:53:57;2.00;99.90
6377;DHT22;3221;48.858;10.128;2023-02-01T12:59:22;2.00;99.90
6377;DHT22;3221;48.858;10.128;2023-02-01T13:02:01;2.00;99.90
6377;DHT22;3221;48.858;10.128;2023-02-01T13:07:14;2.00;99.90
6377;DHT22;3221;48.858;10.128;2023-02-01T13:10:17;2.00;99.90
6377;DHT22;3221;48.858;10.128;2023-02-01T13:13:07;2.00;99.90
6377;DHT22;3221;48.858;10.128;2023-02-01T13:16:32;2.00;99.90
6377;DHT22;3221;48.858;10.128;2023-02-01T13:18:37;2.00;99.90
6377;DHT22;3221;48.858;10.128;2023-02-01T13:21:12;2.10;99.90
6377;DHT22;3221;48.858;10.128;2023-02-01T13:23:45;2.10;99.90
6377;DHT22;3221;48.858;10.128;2023-02-01T13:26:12;2.10;99.90
6377;DHT22;3221;48.858;10.128;2023-02-01T13:44:48;2.00;99.90
6377;DHT22;3221;48.858;10.128;2023-02-01T13:47:32;2.00;99.90
6377;DHT22;3221;48.858;10.128;2023-02-01T13:50:04;2.00;99.90
6377;DHT22;3221;48.858;10.128;2023-02-01T13:52:42;2.10;99.90
6377;DHT22;3221;48.858;10.128;2023-02-01T13:55:31;2.10;99.90
6377;DHT22;3221;48.858;10.128;2023-02-01T13:58:19;2.10;99.90
6377;DHT22;3221;48.858;10.128;2023-02-01T14:00:49;2.10;99.90
6377;DHT22;3221;48.858;10.128;2023-02-01T14:03:22;2.10;99.90
6377;DHT22;3221;48.858;10.128;2023-02-01T14:08:40;1.90;99.90
6377;DHT22;3221;48.858;10.128;2023-02-01T14:16:44;2.00;99.90
6377;DHT22;3221;48.858;10.128;2023-02-01T14:19:32;2.10;99.90
6377;DHT22;3221;48.858;10.128;2023-02-01T14:24:55;2.00;99.90
6377;DHT22;3221;48.858;10.128;2023-02-01T14:27:25;2.00;99.90
6377;DHT22;3221;48.858;10.128;2023-02-01T14:30:06;2.00;99.90
6377;DHT22;3221;48.858;10.128;2023-02-01T14:32:39;2.10;99.90
6377;DHT22;3221;48.858;10.128;2023-02-01T14:35:20;2.10;99.90
6377;DHT22;3221;48.858;10.128;2023-02-01T14:37:52;2.10;99.90
6377;DHT22;3221;48.858;10.128;2023-02-01T14:40:24;2.00;99.90
6377;DHT22;3221;48.858;10.128;2023-02-01T14:42:52;2.00;99.90
6377;DHT22;3221;48.858;10.128;2023-02-01T14:47:52;2.00;99.90
6377;DHT22;3221;48.858;10.128;2023-02-01T15:01:46;2.00;99.90
6377;DHT22;3221;48.858;10.128;2023-02-01T15:06:54;2.00;99.90
6377;DHT22;3221;48.858;10.128;2023-02-01T15:09:29;2.00;99.90
6377;DHT22;3221;48.858;10.128;2023-02-01T15:12:05;2.00;99.90
6377;DHT22;3221;48.858;10.128;2023-02-01T15:15:03;2.00;99.90
6377;DHT22;3221;48.858;10.128;2023-02-01T15:17:31;2.00;99.90
6377;DHT22;3221;48.858;10.128;2023-02-01T15:20:24;2.00;99.90
6377;DHT22;3221;48.858;10.128;2023-02-01T15:23:06;2.10;99.90
6377;DHT22;3221;48.858;10.128;2023-02-01T15:25:45;2.00;99.90
6377;DHT22;3221;48.858;10.128;2023-02-01T15:28:13;2.00;99.90
6377;DHT22;3221;48.858;10.128;2023-02-01T15:31:04;2.00;99.90
6377;DHT22;3221;48.858;10.128;2023-02-01T15:33:32;2.00;99.90
6377;DHT22;3221;48.858;10.128;2023-02-01T15:38:41;2.00;99.90
6377;DHT22;3221;48.858;10.128;2023-02-01T15:46:36;2.00;99.90
6377;DHT22;3221;48.858;10.128;2023-02-01T15:49:05;2.00;99.90
6377;DHT22;3221;48.858;10.128;2023-02-01T15:51:44;2.00;99.90
6377;DHT22;3221;48.858;10.128;2023-02-01T15:54:28;2.00;99.90
6377;DHT22;3221;48.858;10.128;2023-02-01T15:56:59;2.00;99.90
6377;DHT22;3221;48.858;10.128;2023-02-01T15:59:44;2.00;99.90
6377;DHT22;3221;48.858;10.128;2023-02-01T16:04:55;2.00;99.90
6377;DHT22;3221;48.858;10.128;2023-02-01T16:07:27;1.90;99.90
6377;DHT22;3221;48.858;10.128;2023-02-01T16:09:56;2.00;99.90
6377;DHT22;3221;48.858;10.128;2023-02-01T16:12:44;2.00;99.90
6377;DHT22;3221;48.858;10.128;2023-02-01T16:15:14;2.00;99.90
6377;DHT22;3221;48.858;10.128;2023-02-01T16:17:40;2.00;99.90
6377;DHT22;3221;48.858;10.128;2023-02-01T16:20:08;2.00;99.90
6377;DHT22;3221;48.858;10.128;2023-02-01T16:22:35;2.00;99.90
6377;DHT22;3221;48.858;10.128;2023-02-01T16:25:02;2.00;99.90
6377;DHT22;3221;48.858;10.128;2023-02-01T16:27:29;2.00;99.90
6377;DHT22;3221;48.858;10.128;2023-02-01T16:29:56;2.00;99.90
6377;DHT22;3221;48.858;10.128;2023-02-01T16:32:23;2.00;99.90
6377;DHT22;3221;48.858;10.128;2023-02-01T16:34:50;2.00;99.90
6377;DHT22;3221;48.858;10.128;2023-02-01T16:37:22;2.00;99.90
6377;DHT22;3221;48.858;10.128;2023-02-01T16:39:49;2.00;99.90
6377;DHT22;3221;48.858;10.128;2023-02-01T16:42:18;2.00;99.90
6377;DHT22;3221;48.858;10.128;2023-02-01T16:44:45;2.10;99.90
6377;DHT22;3221;48.858;10.128;2023-02-01T16:47:21;2.00;99.90
6377;DHT22;3221;48.858;10.128;2023-02-01T16:49:49;2.00;99.90
6377;DHT22;3221;48.858;10.128;2023-02-01T16:52:21;2.00;99.90
6377;DHT22;3221;48.858;10.128;2023-02-01T16:54:48;2.00;99.90
6377;DHT22;3221;48.858;10.128;2023-02-01T16:57:17;2.10;99.90
6377;DHT22;3221;48.858;10.128;2023-02-01T16:59:44;2.10;99.90
6377;DHT22;3221;48.858;10.128;2023-02-01T17:02:16;2.10;99.90
6377;DHT22;3221;48.858;10.128;2023-02-01T17:04:45;2.00;99.90
6377;DHT22;3221;48.858;10.128;2023-02-01T17:07:16;2.00;99.90
6377;DHT22;3221;48.858;10.128;2023-02-01T17:09:44;2.00;99.90
6377;DHT22;3221;48.858;10.128;2023-02-01T17:12:30;2.00;99.90
6377;DHT22;3221;48.858;10.128;2023-02-01T17:14:59;2.10;99.90
6377;DHT22;3221;48.858;10.128;2023-02-01T17:17:35;2.00;99.90
6377;DHT22;3221;48.858;10.128;2023-02-01T17:20:18;2.00;99.90
6377;DHT22;3221;48.858;10.128;2023-02-01T17:22:46;2.00;99.90
6377;DHT22;3221;48.858;10.128;2023-02-01T17:25:18;2.00;99.90
6377;DHT22;3221;48.858;10.128;2023-02-01T17:27:45;2.10;99.90
6377;DHT22;3221;48.858;10.128;2023-02-01T17:30:13;2.00;99.90
6377;DHT22;3221;48.858;10.128;2023-02-01T17:32:42;2.10;99.90
6377;DHT22;3221;48.858;10.128;2023-02-01T17:35:18;2.10;99.90
6377;DHT22;3221;48.858;10.128;2023-02-01T17:37:46;2.10;99.90
6377;DHT22;3221;48.858;10.128;2023-02-01T17:40:14;2.10;99.90
6377;DHT22;3221;48.858;10.128;2023-02-01T17:42:41;2.10;99.90
6377;DHT22;3221;48.858;10.128;2023-02-01T17:47:50;2.10;99.90
6377;DHT22;3221;48.858;10.128;2023-02-01T17:50:17;2.00;99.90
6377;DHT22;3221;48.858;10.128;2023-02-01T17:52:43;2.00;99.90
6377;DHT22;3221;48.858;10.128;2023-02-01T17:55:23;2.00;99.90
6377;DHT22;3221;48.858;10.128;2023-02-01T17:57:50;2.00;99.90
6377;DHT22;3221;48.858;10.128;2023-02-01T18:00:18;2.10;99.90
6377;DHT22;3221;48.858;10.128;2023-02-01T18:02:45;2.10;99.90
6377;DHT22;3221;48.858;10.128;2023-02-01T18:05:25;2.10;99.90
6377;DHT22;3221;48.858;10.128;2023-02-01T18:07:53;2.10;99.90
6377;DHT22;3221;48.858;10.128;2023-02-01T18:10:19;2.10;99.90
6377;DHT22;3221;48.858;10.128;2023-02-01T18:12:46;2.10;99.90
6377;DHT22;3221;48.858;10.128;2023-02-01T18:15:21;2.10;99.90
6377;DHT22;3221;48.858;10.128;2023-02-01T18:17:49;2.10;99.90
6377;DHT22;3221;48.858;10.128;2023-02-01T18:20:20;2.10;99.90
6377;DHT22;3221;48.858;10.128;2023-02-01T18:22:47;2.00;99.90
6377;DHT22;3221;48.858;10.128;2023-02-01T18:25:30;2.00;99.90
6377;DHT22;3221;48.858;10.128;2023-02-01T18:28:03;2.00;99.90
6377;DHT22;3221;48.858;10.128;2023-02-01T18:30:31;2.10;99.90
6377;DHT22;3221;48.858;10.128;2023-02-01T18:32:59;2.00;99.90
6377;DHT22;3221;48.858;10.128;2023-02-01T18:35:29;2.00;99.90
6377;DHT22;3221;48.858;10.128;2023-02-01T18:37:56;2.10;99.90
6377;DHT22;3221;48.858;10.128;2023-02-01T18:40:32;2.00;99.90
6377;DHT22;3221;48.858;10.128;2023-02-01T18:43:00;2.00;99.90
6377;DHT22;3221;48.858;10.128;2023-02-01T18:45:31;2.00;99.90
6377;DHT22;3221;48.858;10.128;2023-02-01T18:47:58;2.10;99.90
6377;DHT22;3221;48.858;10.128;2023-02-01T18:50:28;2.10;99.90
6377;DHT22;3221;48.858;10.128;2023-02-01T18:52:56;2.10;99.90
6377;DHT22;3221;48.858;10.128;2023-02-01T18:55:24;2.10;99.90